Main page
METAR-TAF:

METAR-TAF

Airports :

Damascus International Airport

Damascus, Syria

latitude: 33-25N, longitude: 036-31E, elevation: 608 m

Current weather observation

The report was made 7 minutes ago, at 03:00 UTC
Wind 5 kt from the South/Southwest
Temperature -1°C
Humidity 93%
Pressure 1021 hPa

METAR: OSDI 230300Z 20005KT 0800FG M01/M02 Q1021

Time: 06:07 (03:07 UTC)

Forecast

The report was made 5 hours and 7 minutes ago, at 22:00 UTC
Forecast valid from 23 at 00 UTC to 24 at 06 UTC
Wind 3 kt from variable directions
Visibility 10 km or more
no clouds below 1500 m and no cumulonimbus
Temporary
from 21 at 10 UTC to 23 at 20 UTC
Visibility 10 km or more
Few clouds at a height of 3000 ft
Scattered clouds at a height of 10000 ft

TAF: OSDI 222200Z 2300/2406 VRB03KT CAVOK TEMPO 2110/2320 2210KT 9999 FEW030 SCT100

Weather observations and forecasts of more than 4000 airports (METAR and TAF reports).

The available stations are represented by yellow and red dots on the map.

Hover mouse over dot to see the name of the station.

Then click to see weather observations and forecasts.

To change the map : click on the green buttons with a black cross to zoom in, on the green button with a dash to zoom out, or on the green arrows for adjacent maps.


METAR-TAF: